createdAt,value
2019-03-10T00:00:55.145Z,10.70
2019-03-10T00:03:29.093Z,10.60
2019-03-10T00:06:02.264Z,10.50
2019-03-10T00:08:35.103Z,10.50
2019-03-10T00:11:07.959Z,10.50
2019-03-10T00:13:40.771Z,10.50
2019-03-10T00:16:13.657Z,10.40
2019-03-10T00:18:46.930Z,10.50
2019-03-10T00:21:19.806Z,10.50
2019-03-10T00:23:52.627Z,10.50
2019-03-10T00:26:26.560Z,10.50
2019-03-10T00:28:59.483Z,10.50
2019-03-10T00:31:32.488Z,10.50
2019-03-10T00:34:05.346Z,10.50
2019-03-10T00:36:38.181Z,10.50
2019-03-10T00:40:01.084Z,10.50
2019-03-10T00:43:18.314Z,10.60
2019-03-10T00:47:02.957Z,10.50
2019-03-10T00:50:38.906Z,10.50
2019-03-10T00:53:11.793Z,10.50
2019-03-10T00:55:44.604Z,10.40
2019-03-10T00:58:17.466Z,10.50
2019-03-10T01:00:50.253Z,10.50
2019-03-10T01:03:23.107Z,10.40
2019-03-10T01:05:55.958Z,10.40
2019-03-10T01:08:28.805Z,10.40
2019-03-10T01:11:02.339Z,10.40
2019-03-10T01:13:35.183Z,10.30
2019-03-10T01:16:08.798Z,10.30
2019-03-10T01:18:43.832Z,10.30
2019-03-10T01:21:18.339Z,10.30
2019-03-10T01:23:51.192Z,10.30
2019-03-10T01:26:24.015Z,10.30
2019-03-10T01:28:57.819Z,10.20
2019-03-10T01:32:46.726Z,10.20
2019-03-10T01:35:28.188Z,10.20
2019-03-10T01:38:00.990Z,10.30
2019-03-10T01:40:33.781Z,10.30
2019-03-10T01:43:06.680Z,10.30
2019-03-10T01:45:39.528Z,10.30
2019-03-10T01:48:12.371Z,10.30
2019-03-10T01:50:45.180Z,10.30
2019-03-10T01:53:25.272Z,10.20
2019-03-10T01:55:52.758Z,10.30
2019-03-10T01:58:25.602Z,10.30
2019-03-10T02:00:58.409Z,10.30
2019-03-10T02:03:31.251Z,10.20
2019-03-10T02:06:04.083Z,10.20
2019-03-10T02:08:36.906Z,10.20
2019-03-10T02:11:09.739Z,10.20
2019-03-10T02:13:42.627Z,10.10
2019-03-10T02:16:16.549Z,10.10
2019-03-10T02:18:49.385Z,10.10
2019-03-10T02:21:22.188Z,10.10
2019-03-10T02:23:55.007Z,10.10
2019-03-10T02:26:27.850Z,10.10
2019-03-10T02:29:00.737Z,10.10
2019-03-10T02:31:33.565Z,10.10
2019-03-10T02:34:06.417Z,10.00
2019-03-10T02:36:39.234Z,10.10
2019-03-10T02:39:12.082Z,10.00
2019-03-10T02:41:45.022Z,10.00
2019-03-10T02:44:17.848Z,10.00
2019-03-10T02:46:50.663Z,9.90
2019-03-10T02:49:23.524Z,9.90
2019-03-10T02:51:56.512Z,9.80
2019-03-10T02:54:29.290Z,9.70
2019-03-10T02:57:02.089Z,9.80
2019-03-10T02:59:34.934Z,9.80
2019-03-10T03:02:07.706Z,9.90
2019-03-10T03:04:40.538Z,9.90
2019-03-10T03:07:13.391Z,10.00
2019-03-10T03:09:46.222Z,10.00
2019-03-10T03:12:19.031Z,10.00
2019-03-10T03:14:51.858Z,10.00
2019-03-10T03:17:24.669Z,9.90
2019-03-10T03:19:57.557Z,9.90
2019-03-10T03:22:30.384Z,9.90
2019-03-10T03:25:04.524Z,9.90
2019-03-10T03:27:37.400Z,9.90
2019-03-10T03:30:13.695Z,9.90
2019-03-10T03:32:46.505Z,10.00
2019-03-10T03:36:00.602Z,10.00
2019-03-10T03:38:40.658Z,9.90
2019-03-10T03:41:16.068Z,9.90
2019-03-10T03:43:48.911Z,9.90
2019-03-10T03:46:21.724Z,9.80
2019-03-10T03:48:54.585Z,9.80
2019-03-10T03:51:27.384Z,9.70
2019-03-10T03:54:00.206Z,9.60
2019-03-10T03:56:32.985Z,9.50
2019-03-10T03:59:05.840Z,9.50
2019-03-10T04:01:42.820Z,9.40
2019-03-10T04:04:15.647Z,9.30
2019-03-10T04:06:48.552Z,9.20
2019-03-10T04:09:21.384Z,9.10
2019-03-10T04:11:54.163Z,9.10
2019-03-10T04:14:27.097Z,9.00
2019-03-10T04:16:59.904Z,9.00
2019-03-10T04:19:32.752Z,8.90
2019-03-10T04:22:05.613Z,8.80
2019-03-10T04:24:38.476Z,8.80
2019-03-10T04:27:11.275Z,8.80
2019-03-10T04:29:44.127Z,8.70
2019-03-10T04:32:17.155Z,8.70
2019-03-10T04:34:49.976Z,8.70
2019-03-10T04:37:22.843Z,8.60
2019-03-10T04:39:55.682Z,8.60
2019-03-10T04:42:28.502Z,8.50
2019-03-10T04:45:01.320Z,8.50
2019-03-10T04:47:34.122Z,8.50
2019-03-10T04:50:07.426Z,8.40
2019-03-10T04:52:40.236Z,8.40
2019-03-10T04:55:27.855Z,8.40
2019-03-10T04:58:03.133Z,8.40
2019-03-10T05:00:37.745Z,8.50
2019-03-10T05:03:10.553Z,8.50
2019-03-10T05:05:43.389Z,8.50
2019-03-10T05:08:16.249Z,8.50
2019-03-10T05:10:49.058Z,8.50
2019-03-10T05:13:21.920Z,8.50
2019-03-10T05:15:54.721Z,8.50
2019-03-10T05:18:27.523Z,8.50
2019-03-10T05:21:00.404Z,8.60
2019-03-10T05:23:44.365Z,8.60
2019-03-10T05:26:17.173Z,8.60
2019-03-10T05:28:50.020Z,8.70
2019-03-10T05:31:22.951Z,8.70
2019-03-10T05:33:55.783Z,8.70
2019-03-10T05:36:28.631Z,8.70
2019-03-10T05:39:01.469Z,8.70
2019-03-10T05:41:36.226Z,8.80
2019-03-10T05:44:09.092Z,8.80
2019-03-10T05:46:41.874Z,8.80
2019-03-10T05:49:14.695Z,8.80
2019-03-10T05:51:47.535Z,8.80
2019-03-10T05:54:20.351Z,8.80
2019-03-10T05:56:53.185Z,8.80
2019-03-10T05:59:25.988Z,8.80
2019-03-10T06:01:58.904Z,8.80
2019-03-10T06:04:31.768Z,8.80
2019-03-10T06:07:04.601Z,8.80
2019-03-10T06:09:37.421Z,8.80
2019-03-10T06:12:10.254Z,8.80
2019-03-10T06:14:43.094Z,8.80
2019-03-10T06:17:16.003Z,8.80
2019-03-10T06:19:48.827Z,8.80
2019-03-10T06:22:21.694Z,8.80
2019-03-10T06:24:54.527Z,8.80
2019-03-10T06:27:27.296Z,8.90
2019-03-10T06:30:00.339Z,8.90
2019-03-10T06:32:33.223Z,8.90
2019-03-10T06:35:06.791Z,8.90
2019-03-10T06:37:39.617Z,8.80
2019-03-10T06:40:12.519Z,8.90
2019-03-10T06:42:45.401Z,8.80
2019-03-10T06:45:18.210Z,8.80
2019-03-10T06:47:51.127Z,8.80
2019-03-10T06:50:23.964Z,8.80
2019-03-10T06:52:56.822Z,8.80
2019-03-10T06:55:29.655Z,8.80
2019-03-10T06:58:03.485Z,8.90
2019-03-10T07:00:36.357Z,8.90
2019-03-10T07:03:09.176Z,8.90
2019-03-10T07:05:42.021Z,8.90
2019-03-10T07:08:14.864Z,8.90
2019-03-10T07:10:47.736Z,8.90
2019-03-10T07:13:20.555Z,8.90
2019-03-10T07:15:53.517Z,8.90
2019-03-10T07:18:26.339Z,8.90
2019-03-10T07:21:00.281Z,8.90
2019-03-10T07:23:33.102Z,9.00
2019-03-10T07:26:06.400Z,9.00
2019-03-10T07:28:53.903Z,9.00
2019-03-10T07:31:33.699Z,9.00
2019-03-10T07:34:17.115Z,9.00
2019-03-10T07:37:06.989Z,9.00
2019-03-10T07:40:05.051Z,9.00
2019-03-10T07:43:12.680Z,9.00
2019-03-10T07:46:07.930Z,9.00
2019-03-10T07:48:54.171Z,9.10
2019-03-10T07:51:49.444Z,9.10
2019-03-10T07:54:42.834Z,9.10
2019-03-10T07:57:26.184Z,9.20
2019-03-10T08:00:21.491Z,9.20
2019-03-10T08:03:12.667Z,9.30
2019-03-10T08:06:11.208Z,9.30
2019-03-10T08:09:03.658Z,9.30
2019-03-10T08:12:07.182Z,9.40
2019-03-10T08:15:11.717Z,9.40
2019-03-10T08:17:49.783Z,9.40
2019-03-10T08:20:30.839Z,9.50
2019-03-10T08:23:23.293Z,9.60
2019-03-10T08:26:05.795Z,9.70
2019-03-10T08:28:58.264Z,9.80
2019-03-10T08:31:50.747Z,9.80
2019-03-10T08:34:39.757Z,9.90
2019-03-10T08:37:44.137Z,9.90
2019-03-10T08:40:29.440Z,10.00
2019-03-10T08:43:34.356Z,10.10
2019-03-10T08:46:17.102Z,10.20
2019-03-10T08:49:06.492Z,10.30
2019-03-10T08:52:04.720Z,10.30
2019-03-10T08:54:58.720Z,10.50
2019-03-10T08:57:51.160Z,10.70
2019-03-10T09:00:42.279Z,10.80
2019-03-10T09:03:30.661Z,10.90
2019-03-10T09:06:12.866Z,10.90
2019-03-10T09:09:05.034Z,11.00
2019-03-10T09:11:48.205Z,11.10
2019-03-10T09:14:40.668Z,11.20
2019-03-10T09:17:39.088Z,11.40
2019-03-10T09:20:30.212Z,11.60
2019-03-10T09:23:12.696Z,11.90
2019-03-10T09:26:03.823Z,12.10
2019-03-10T09:28:56.301Z,12.20
2019-03-10T09:31:47.439Z,12.20
2019-03-10T09:34:45.492Z,12.30
2019-03-10T09:37:27.220Z,12.20
2019-03-10T09:40:19.689Z,12.20
2019-03-10T09:43:17.945Z,12.10
2019-03-10T09:45:59.716Z,12.10
2019-03-10T09:48:54.971Z,12.20
2019-03-10T09:51:56.002Z,12.20
2019-03-10T09:55:00.979Z,12.60
2019-03-10T09:57:53.129Z,12.90
2019-03-10T10:00:38.841Z,13.30
2019-03-10T10:03:34.146Z,13.50
2019-03-10T10:06:35.644Z,13.60
2019-03-10T10:09:28.348Z,13.70
2019-03-10T10:12:20.194Z,13.70
2019-03-10T10:15:31.054Z,13.70
2019-03-10T10:18:16.433Z,13.70
2019-03-10T10:20:56.855Z,13.80
2019-03-10T10:23:41.162Z,13.90
2019-03-10T10:26:39.383Z,14.10
2019-03-10T10:29:34.735Z,14.20
2019-03-10T10:32:18.621Z,14.30
2019-03-10T10:35:14.108Z,14.20
2019-03-10T10:38:03.353Z,14.20
2019-03-10T10:40:47.308Z,14.10
2019-03-10T10:43:38.739Z,14.20
2019-03-10T10:46:20.441Z,14.20
2019-03-10T10:49:04.480Z,14.20
2019-03-10T10:51:56.941Z,14.40
2019-03-10T10:54:52.500Z,14.40
2019-03-10T10:57:47.460Z,14.50
2019-03-10T11:00:32.083Z,14.40
2019-03-10T11:03:27.490Z,14.30
2019-03-10T11:06:21.308Z,14.40
2019-03-10T11:09:16.191Z,14.50
2019-03-10T11:11:55.883Z,14.50
2019-03-10T11:14:48.413Z,14.50
2019-03-10T11:18:08.834Z,14.50
2019-03-10T11:20:57.060Z,14.60
2019-03-10T11:23:49.026Z,14.40
2019-03-10T11:26:33.596Z,14.50
2019-03-10T11:29:22.242Z,14.70
2019-03-10T11:32:23.734Z,14.80
2019-03-10T11:35:16.511Z,14.90
2019-03-10T11:38:07.555Z,15.00
2019-03-10T11:41:05.718Z,15.00
2019-03-10T11:44:00.857Z,15.10
2019-03-10T11:47:08.263Z,15.30
2019-03-10T11:49:58.033Z,15.60
2019-03-10T11:52:45.054Z,15.80
2019-03-10T11:55:46.616Z,15.80
2019-03-10T11:58:39.538Z,15.80
2019-03-10T12:01:34.516Z,15.90
2019-03-10T12:04:29.788Z,15.90
2019-03-10T12:07:11.872Z,16.00
2019-03-10T12:09:44.772Z,16.30
2019-03-10T12:12:17.562Z,15.80
2019-03-10T12:14:50.490Z,15.70
2019-03-10T12:17:23.322Z,15.60
2019-03-10T12:19:56.196Z,14.40
2019-03-10T12:22:29.168Z,14.10
2019-03-10T12:25:02.064Z,13.90
2019-03-10T12:27:34.912Z,14.30
2019-03-10T12:30:08.884Z,14.20
2019-03-10T12:32:41.916Z,13.90
2019-03-10T12:35:14.759Z,14.00
2019-03-10T12:37:47.577Z,14.30
2019-03-10T12:40:20.436Z,14.40
2019-03-10T12:42:54.349Z,14.50
2019-03-10T12:45:28.310Z,14.60
2019-03-10T12:48:01.170Z,14.60
2019-03-10T12:50:34.103Z,14.60
2019-03-10T12:53:06.938Z,14.70
2019-03-10T12:55:39.794Z,14.90
2019-03-10T12:58:12.673Z,15.10
2019-03-10T13:00:45.555Z,15.30
2019-03-10T13:03:18.513Z,15.30
2019-03-10T13:05:51.349Z,15.20
2019-03-10T13:08:24.257Z,15.20
2019-03-10T13:10:57.083Z,15.20
2019-03-10T13:13:29.891Z,15.20
2019-03-10T13:16:02.836Z,15.20
2019-03-10T13:18:35.777Z,15.20
2019-03-10T13:21:09.758Z,15.30
2019-03-10T13:23:42.751Z,15.40
2019-03-10T13:26:15.777Z,15.40
2019-03-10T13:28:48.999Z,15.40
2019-03-10T13:31:21.946Z,15.40
2019-03-10T13:33:54.837Z,15.40
2019-03-10T13:36:29.042Z,15.40
2019-03-10T13:39:02.058Z,15.40
2019-03-10T13:41:36.866Z,15.50
2019-03-10T13:44:09.888Z,15.30
2019-03-10T13:46:43.888Z,15.40
2019-03-10T13:49:16.941Z,15.30
2019-03-10T13:51:49.811Z,15.30
2019-03-10T13:54:22.712Z,15.30
2019-03-10T13:56:57.954Z,15.40
2019-03-10T13:59:30.453Z,15.40
2019-03-10T14:02:03.423Z,15.50
2019-03-10T14:04:36.382Z,15.50
2019-03-10T14:07:11.776Z,15.40
2019-03-10T14:09:44.759Z,15.40
2019-03-10T14:12:17.636Z,15.20
2019-03-10T14:14:50.502Z,14.90
2019-03-10T14:17:23.404Z,14.90
2019-03-10T14:19:56.276Z,14.90
2019-03-10T14:22:30.551Z,14.90
2019-03-10T14:25:03.618Z,14.80
2019-03-10T14:27:36.576Z,14.60
2019-03-10T14:30:10.027Z,14.70
2019-03-10T14:32:42.921Z,14.80
2019-03-10T14:35:15.911Z,14.90
2019-03-10T14:37:50.669Z,14.70
2019-03-10T14:40:23.557Z,14.70
2019-03-10T14:42:56.422Z,14.80
2019-03-10T14:45:29.438Z,14.50
2019-03-10T14:48:02.582Z,14.50
2019-03-10T14:50:35.527Z,14.50
2019-03-10T14:53:08.651Z,14.30
2019-03-10T14:55:41.549Z,14.30
2019-03-10T14:58:14.464Z,14.30
2019-03-10T15:00:47.556Z,14.40
2019-03-10T15:03:21.561Z,14.30
2019-03-10T15:05:54.575Z,14.10
2019-03-10T15:08:27.455Z,14.00
2019-03-10T15:11:00.367Z,13.90
2019-03-10T15:13:33.323Z,13.70
2019-03-10T15:16:06.322Z,13.60
2019-03-10T15:18:39.234Z,13.60
2019-03-10T15:21:12.467Z,13.60
2019-03-10T15:23:45.626Z,13.70
2019-03-10T15:26:18.781Z,13.70
2019-03-10T15:28:51.905Z,13.80
2019-03-10T15:31:24.993Z,13.70
2019-03-10T15:33:58.108Z,13.50
2019-03-10T15:36:33.211Z,13.40
2019-03-10T15:39:10.320Z,13.30
2019-03-10T15:41:45.864Z,13.20
2019-03-10T15:44:18.994Z,13.20
2019-03-10T15:46:52.334Z,13.10
2019-03-10T15:49:25.610Z,13.10
2019-03-10T15:51:58.899Z,13.10
2019-03-10T15:54:31.969Z,13.00
2019-03-10T15:57:05.074Z,13.00
2019-03-10T15:59:38.152Z,13.00
2019-03-10T16:02:11.069Z,13.10
2019-03-10T16:04:43.971Z,13.10
2019-03-10T16:07:20.295Z,12.90
2019-03-10T16:09:52.742Z,12.80
2019-03-10T16:12:25.689Z,12.80
2019-03-10T16:14:58.567Z,12.70
2019-03-10T16:17:31.656Z,12.70
2019-03-10T16:20:06.396Z,12.60
2019-03-10T16:22:40.559Z,12.50
2019-03-10T16:25:13.515Z,12.40
2019-03-10T16:27:46.553Z,12.40
2019-03-10T16:30:19.437Z,12.30
2019-03-10T16:32:52.419Z,12.30
2019-03-10T16:35:26.349Z,12.20
2019-03-10T16:37:59.315Z,12.30
2019-03-10T16:40:34.013Z,12.20
2019-03-10T16:43:07.185Z,12.20
2019-03-10T16:45:40.090Z,12.20
2019-03-10T16:48:14.769Z,12.30
2019-03-10T16:50:47.580Z,12.20
2019-03-10T16:53:20.588Z,12.20
2019-03-10T16:56:02.479Z,12.10
2019-03-10T16:58:28.371Z,12.00
2019-03-10T17:01:01.290Z,12.00
2019-03-10T17:03:34.327Z,11.90
2019-03-10T17:06:07.299Z,11.80
2019-03-10T17:08:40.255Z,11.90
2019-03-10T17:11:13.244Z,11.70
2019-03-10T17:13:46.240Z,11.70
2019-03-10T17:16:19.285Z,11.70
2019-03-10T17:18:52.306Z,11.60
2019-03-10T17:21:25.285Z,11.60
2019-03-10T17:23:58.196Z,11.50
2019-03-10T17:26:31.120Z,11.50
2019-03-10T17:29:04.361Z,11.40
2019-03-10T17:31:37.329Z,11.30
2019-03-10T17:34:10.263Z,11.30
2019-03-10T17:36:43.227Z,11.20
2019-03-10T17:39:16.178Z,11.20
2019-03-10T17:41:49.050Z,11.20
2019-03-10T17:44:22.043Z,11.20
2019-03-10T17:46:54.975Z,11.20
2019-03-10T17:49:27.889Z,11.10
2019-03-10T17:52:00.855Z,11.00
2019-03-10T17:54:33.812Z,11.00
2019-03-10T17:57:06.755Z,10.90
2019-03-10T17:59:39.756Z,10.90
2019-03-10T18:02:12.667Z,10.90
2019-03-10T18:04:45.650Z,10.70
2019-03-10T18:07:18.570Z,9.70
2019-03-10T18:09:51.550Z,9.10
2019-03-10T18:12:24.397Z,8.80
2019-03-10T18:15:07.910Z,8.70
2019-03-10T18:17:32.139Z,8.60
2019-03-10T18:20:08.653Z,8.30
2019-03-10T18:22:41.880Z,7.90
2019-03-10T18:25:15.016Z,7.40
2019-03-10T18:27:47.912Z,7.20
2019-03-10T18:30:21.138Z,7.20
2019-03-10T18:32:54.281Z,7.30
2019-03-10T18:35:27.343Z,7.30
2019-03-10T18:38:01.628Z,7.30
2019-03-10T18:40:34.623Z,7.30
2019-03-10T18:43:08.813Z,7.40
2019-03-10T18:45:41.744Z,7.40
2019-03-10T18:48:14.710Z,7.50
2019-03-10T18:50:47.648Z,7.50
2019-03-10T18:53:20.749Z,7.60
2019-03-10T18:55:53.691Z,7.60
2019-03-10T18:58:26.671Z,7.50
2019-03-10T19:00:59.963Z,7.50
2019-03-10T19:03:33.115Z,7.50
2019-03-10T19:06:06.138Z,7.50
2019-03-10T19:08:39.188Z,7.50
2019-03-10T19:11:12.133Z,7.60
2019-03-10T19:13:45.034Z,7.60
2019-03-10T19:16:17.930Z,7.60
2019-03-10T19:18:50.996Z,7.60
2019-03-10T19:21:23.999Z,7.70
2019-03-10T19:23:57.026Z,7.70
2019-03-10T19:26:29.954Z,7.60
2019-03-10T19:29:03.109Z,7.60
2019-03-10T19:31:36.121Z,7.70
2019-03-10T19:34:10.052Z,7.70
2019-03-10T19:36:43.046Z,7.70
2019-03-10T19:39:16.369Z,7.70
2019-03-10T19:41:49.444Z,7.70
2019-03-10T19:44:22.608Z,7.60
2019-03-10T19:46:55.645Z,7.60
2019-03-10T19:49:28.632Z,7.60
2019-03-10T19:52:01.531Z,7.50
2019-03-10T19:54:34.473Z,7.50
2019-03-10T19:57:07.411Z,7.30
2019-03-10T19:59:40.538Z,7.20
2019-03-10T20:02:13.556Z,6.80
2019-03-10T20:04:46.754Z,6.50
2019-03-10T20:07:19.747Z,6.20
2019-03-10T20:09:52.722Z,6.10
2019-03-10T20:12:25.609Z,5.90
2019-03-10T20:14:59.699Z,5.80
2019-03-10T20:17:32.802Z,5.70
2019-03-10T20:20:08.270Z,5.70
2019-03-10T20:22:41.151Z,5.70
2019-03-10T20:25:14.415Z,5.80
2019-03-10T20:27:48.628Z,5.70
2019-03-10T20:30:22.641Z,5.70
2019-03-10T20:32:55.527Z,5.70
2019-03-10T20:35:28.543Z,5.70
2019-03-10T20:38:01.405Z,5.70
2019-03-10T20:40:34.633Z,5.80
2019-03-10T20:43:07.663Z,5.80
2019-03-10T20:45:40.606Z,5.80
2019-03-10T20:48:13.611Z,5.90
2019-03-10T20:50:46.648Z,5.90
2019-03-10T20:53:19.734Z,6.00
2019-03-10T20:55:53.788Z,6.00
2019-03-10T20:58:26.927Z,6.00
2019-03-10T21:00:59.808Z,5.90
2019-03-10T21:03:32.869Z,5.90
2019-03-10T21:06:05.782Z,5.90
2019-03-10T21:08:38.741Z,5.90
2019-03-10T21:11:12.552Z,6.00
2019-03-10T21:13:45.887Z,6.10
2019-03-10T21:16:18.833Z,6.10
2019-03-10T21:18:51.759Z,6.10
2019-03-10T21:21:24.748Z,6.00
2019-03-10T21:23:57.690Z,6.00
2019-03-10T21:26:30.631Z,6.00
2019-03-10T21:29:03.881Z,5.90
2019-03-10T21:31:37.110Z,5.90
2019-03-10T21:34:10.210Z,5.90
2019-03-10T21:36:43.200Z,5.90
2019-03-10T21:39:16.217Z,5.90
2019-03-10T21:41:49.120Z,5.90
2019-03-10T21:44:26.557Z,5.90
2019-03-10T21:46:56.801Z,5.80
2019-03-10T21:49:31.480Z,5.80
2019-03-10T21:52:04.560Z,5.70
2019-03-10T21:54:37.452Z,5.70
2019-03-10T21:57:10.420Z,5.60
2019-03-10T21:59:43.284Z,5.60
2019-03-10T22:02:17.196Z,5.50
2019-03-10T22:04:50.048Z,5.40
2019-03-10T22:07:22.947Z,5.40
2019-03-10T22:09:55.825Z,5.30
2019-03-10T22:12:28.682Z,5.30
2019-03-10T22:15:04.152Z,5.20
2019-03-10T22:17:39.323Z,5.20
2019-03-10T22:20:13.377Z,5.20
2019-03-10T22:22:49.120Z,5.20
2019-03-10T22:25:21.437Z,5.30
2019-03-10T22:27:54.312Z,5.20
2019-03-10T22:30:27.217Z,5.30
2019-03-10T22:33:00.071Z,5.40
2019-03-10T22:35:32.918Z,5.50
2019-03-10T22:38:05.868Z,5.60
2019-03-10T22:40:38.778Z,5.70
2019-03-10T22:43:11.625Z,5.70
2019-03-10T22:45:44.576Z,5.70
2019-03-10T22:48:17.444Z,5.70
2019-03-10T22:50:50.404Z,5.60
2019-03-10T22:53:25.111Z,5.60
2019-03-10T22:55:58.004Z,5.60
2019-03-10T22:58:31.461Z,5.60
2019-03-10T23:01:04.542Z,5.60
2019-03-10T23:03:37.782Z,5.60
2019-03-10T23:06:10.666Z,5.50
2019-03-10T23:08:44.605Z,5.50
2019-03-10T23:11:17.470Z,5.50
2019-03-10T23:13:50.306Z,5.40
2019-03-10T23:16:23.182Z,5.40
2019-03-10T23:18:56.031Z,5.40
2019-03-10T23:21:28.897Z,5.30
2019-03-10T23:24:01.711Z,5.30
2019-03-10T23:26:34.592Z,5.30
2019-03-10T23:29:07.439Z,5.30
2019-03-10T23:31:40.274Z,5.30
2019-03-10T23:34:13.137Z,5.30
2019-03-10T23:36:45.986Z,5.40
2019-03-10T23:39:18.798Z,5.40
2019-03-10T23:41:51.655Z,5.40
2019-03-10T23:44:24.449Z,5.40
2019-03-10T23:46:57.299Z,5.30
2019-03-10T23:49:30.947Z,5.30
2019-03-10T23:52:03.870Z,5.20
2019-03-10T23:54:36.865Z,5.20
2019-03-10T23:57:09.737Z,5.10
2019-03-10T23:59:43.581Z,5.10
